sensor_id;sensor_type;location;lat;lon;timestamp;P1;durP1;ratioP1;P2;durP2;ratioP2
7213;SDS011;3648;50.614;13.830;2022-08-14T00:01:48;8.87;;;8.10;;
7213;SDS011;3648;50.614;13.830;2022-08-14T00:04:15;9.33;;;8.53;;
7213;SDS011;3648;50.614;13.830;2022-08-14T00:06:44;8.93;;;8.23;;
7213;SDS011;3648;50.614;13.830;2022-08-14T00:09:11;8.90;;;8.20;;
7213;SDS011;3648;50.614;13.830;2022-08-14T00:11:38;9.03;;;8.33;;
7213;SDS011;3648;50.614;13.830;2022-08-14T00:14:05;8.93;;;8.13;;
7213;SDS011;3648;50.614;13.830;2022-08-14T00:16:32;9.47;;;8.67;;
7213;SDS011;3648;50.614;13.830;2022-08-14T00:19:00;9.20;;;8.50;;
7213;SDS011;3648;50.614;13.830;2022-08-14T00:21:27;10.13;;;9.13;;
7213;SDS011;3648;50.614;13.830;2022-08-14T00:23:56;9.13;;;8.33;;
7213;SDS011;3648;50.614;13.830;2022-08-14T00:26:23;9.37;;;8.50;;
7213;SDS011;3648;50.614;13.830;2022-08-14T00:28:51;9.23;;;8.50;;
7213;SDS011;3648;50.614;13.830;2022-08-14T00:31:19;9.43;;;8.50;;
7213;SDS011;3648;50.614;13.830;2022-08-14T00:33:46;9.90;;;9.07;;
7213;SDS011;3648;50.614;13.830;2022-08-14T00:36:13;9.83;;;9.03;;
7213;SDS011;3648;50.614;13.830;2022-08-14T00:38:40;9.67;;;8.77;;
7213;SDS011;3648;50.614;13.830;2022-08-14T00:41:09;9.57;;;8.77;;
7213;SDS011;3648;50.614;13.830;2022-08-14T00:43:36;10.10;;;9.30;;
7213;SDS011;3648;50.614;13.830;2022-08-14T00:46:04;9.83;;;8.93;;
7213;SDS011;3648;50.614;13.830;2022-08-14T00:48:33;9.67;;;8.77;;
7213;SDS011;3648;50.614;13.830;2022-08-14T00:51:01;9.50;;;8.70;;
7213;SDS011;3648;50.614;13.830;2022-08-14T00:53:29;9.90;;;9.00;;
7213;SDS011;3648;50.614;13.830;2022-08-14T00:55:56;9.27;;;8.47;;
7213;SDS011;3648;50.614;13.830;2022-08-14T00:58:25;10.27;;;9.47;;
7213;SDS011;3648;50.614;13.830;2022-08-14T01:00:58;9.87;;;8.87;;
7213;SDS011;3648;50.614;13.830;2022-08-14T01:03:27;9.57;;;8.77;;
7213;SDS011;3648;50.614;13.830;2022-08-14T01:05:54;9.00;;;8.20;;
7213;SDS011;3648;50.614;13.830;2022-08-14T01:08:23;10.67;;;9.77;;
7213;SDS011;3648;50.614;13.830;2022-08-14T01:10:51;9.87;;;9.07;;
7213;SDS011;3648;50.614;13.830;2022-08-14T01:13:20;9.87;;;8.97;;
7213;SDS011;3648;50.614;13.830;2022-08-14T01:15:52;9.53;;;8.73;;
7213;SDS011;3648;50.614;13.830;2022-08-14T01:18:20;8.97;;;8.27;;
7213;SDS011;3648;50.614;13.830;2022-08-14T01:21:21;9.93;;;9.03;;
7213;SDS011;3648;50.614;13.830;2022-08-14T01:23:50;9.63;;;8.77;;
7213;SDS011;3648;50.614;13.830;2022-08-14T01:26:19;9.40;;;8.70;;
7213;SDS011;3648;50.614;13.830;2022-08-14T01:28:48;9.43;;;8.53;;
7213;SDS011;3648;50.614;13.830;2022-08-14T01:31:20;9.43;;;8.63;;
7213;SDS011;3648;50.614;13.830;2022-08-14T01:33:50;9.60;;;8.77;;
7213;SDS011;3648;50.614;13.830;2022-08-14T01:36:22;10.27;;;9.40;;
7213;SDS011;3648;50.614;13.830;2022-08-14T01:38:51;9.90;;;9.03;;
7213;SDS011;3648;50.614;13.830;2022-08-14T01:41:23;9.87;;;8.97;;
7213;SDS011;3648;50.614;13.830;2022-08-14T01:43:52;10.00;;;9.20;;
7213;SDS011;3648;50.614;13.830;2022-08-14T01:46:23;10.47;;;9.57;;
7213;SDS011;3648;50.614;13.830;2022-08-14T01:48:51;10.03;;;9.13;;
7213;SDS011;3648;50.614;13.830;2022-08-14T01:51:18;10.10;;;9.10;;
7213;SDS011;3648;50.614;13.830;2022-08-14T01:53:50;10.70;;;9.73;;
7213;SDS011;3648;50.614;13.830;2022-08-14T01:56:19;10.60;;;9.53;;
7213;SDS011;3648;50.614;13.830;2022-08-14T01:58:47;10.30;;;9.40;;
7213;SDS011;3648;50.614;13.830;2022-08-14T02:01:16;10.97;;;9.90;;
7213;SDS011;3648;50.614;13.830;2022-08-14T02:03:44;11.50;;;10.27;;
7213;SDS011;3648;50.614;13.830;2022-08-14T02:06:12;11.37;;;10.37;;
7213;SDS011;3648;50.614;13.830;2022-08-14T02:08:40;10.40;;;9.50;;
7213;SDS011;3648;50.614;13.830;2022-08-14T02:11:09;10.37;;;9.47;;
7213;SDS011;3648;50.614;13.830;2022-08-14T02:13:43;11.90;;;10.90;;
7213;SDS011;3648;50.614;13.830;2022-08-14T02:16:11;10.70;;;9.80;;
7213;SDS011;3648;50.614;13.830;2022-08-14T02:18:40;10.73;;;9.83;;
7213;SDS011;3648;50.614;13.830;2022-08-14T02:21:08;10.43;;;9.53;;
7213;SDS011;3648;50.614;13.830;2022-08-14T02:23:36;10.50;;;9.60;;
7213;SDS011;3648;50.614;13.830;2022-08-14T02:26:13;10.47;;;9.47;;
7213;SDS011;3648;50.614;13.830;2022-08-14T02:28:43;10.60;;;9.63;;
7213;SDS011;3648;50.614;13.830;2022-08-14T02:31:11;10.20;;;9.27;;
7213;SDS011;3648;50.614;13.830;2022-08-14T02:33:39;10.03;;;9.20;;
7213;SDS011;3648;50.614;13.830;2022-08-14T02:36:07;10.90;;;9.90;;
7213;SDS011;3648;50.614;13.830;2022-08-14T02:38:35;11.60;;;10.60;;
7213;SDS011;3648;50.614;13.830;2022-08-14T02:41:06;11.37;;;10.37;;
7213;SDS011;3648;50.614;13.830;2022-08-14T02:43:36;11.87;;;10.87;;
7213;SDS011;3648;50.614;13.830;2022-08-14T02:46:04;11.17;;;10.17;;
7213;SDS011;3648;50.614;13.830;2022-08-14T02:48:34;10.73;;;9.83;;
7213;SDS011;3648;50.614;13.830;2022-08-14T02:51:04;11.20;;;10.40;;
7213;SDS011;3648;50.614;13.830;2022-08-14T02:53:33;12.10;;;11.00;;
7213;SDS011;3648;50.614;13.830;2022-08-14T02:56:00;11.73;;;10.73;;
7213;SDS011;3648;50.614;13.830;2022-08-14T02:58:29;11.97;;;10.87;;
7213;SDS011;3648;50.614;13.830;2022-08-14T03:00:58;11.47;;;10.57;;
7213;SDS011;3648;50.614;13.830;2022-08-14T03:03:25;12.30;;;11.20;;
7213;SDS011;3648;50.614;13.830;2022-08-14T03:05:52;11.43;;;10.37;;
7213;SDS011;3648;50.614;13.830;2022-08-14T03:08:21;11.40;;;10.40;;
7213;SDS011;3648;50.614;13.830;2022-08-14T03:10:55;11.33;;;10.37;;
7213;SDS011;3648;50.614;13.830;2022-08-14T03:13:23;11.30;;;10.30;;
7213;SDS011;3648;50.614;13.830;2022-08-14T03:15:51;11.90;;;10.90;;
7213;SDS011;3648;50.614;13.830;2022-08-14T03:18:20;12.77;;;11.47;;
7213;SDS011;3648;50.614;13.830;2022-08-14T03:20:48;12.00;;;11.00;;
7213;SDS011;3648;50.614;13.830;2022-08-14T03:23:16;11.83;;;10.93;;
7213;SDS011;3648;50.614;13.830;2022-08-14T03:25:43;12.73;;;11.50;;
7213;SDS011;3648;50.614;13.830;2022-08-14T03:28:11;12.83;;;11.47;;
7213;SDS011;3648;50.614;13.830;2022-08-14T03:30:40;12.93;;;11.77;;
7213;SDS011;3648;50.614;13.830;2022-08-14T03:33:07;13.13;;;11.93;;
7213;SDS011;3648;50.614;13.830;2022-08-14T03:35:37;11.63;;;10.63;;
7213;SDS011;3648;50.614;13.830;2022-08-14T03:38:05;12.90;;;11.80;;
7213;SDS011;3648;50.614;13.830;2022-08-14T03:40:34;13.17;;;11.80;;
7213;SDS011;3648;50.614;13.830;2022-08-14T03:43:03;12.87;;;11.77;;
7213;SDS011;3648;50.614;13.830;2022-08-14T03:45:31;11.93;;;10.93;;
7213;SDS011;3648;50.614;13.830;2022-08-14T03:48:00;12.40;;;11.40;;
7213;SDS011;3648;50.614;13.830;2022-08-14T03:50:28;12.17;;;11.07;;
7213;SDS011;3648;50.614;13.830;2022-08-14T03:52:57;12.03;;;11.03;;
7213;SDS011;3648;50.614;13.830;2022-08-14T03:55:25;11.27;;;10.27;;
7213;SDS011;3648;50.614;13.830;2022-08-14T03:57:53;12.00;;;10.90;;
7213;SDS011;3648;50.614;13.830;2022-08-14T04:00:21;11.70;;;10.67;;
7213;SDS011;3648;50.614;13.830;2022-08-14T04:02:48;12.30;;;11.10;;
7213;SDS011;3648;50.614;13.830;2022-08-14T04:05:15;13.57;;;12.47;;
7213;SDS011;3648;50.614;13.830;2022-08-14T04:07:42;13.03;;;11.93;;
7213;SDS011;3648;50.614;13.830;2022-08-14T04:10:12;12.93;;;11.83;;
7213;SDS011;3648;50.614;13.830;2022-08-14T04:12:39;13.97;;;12.67;;
7213;SDS011;3648;50.614;13.830;2022-08-14T04:15:07;13.20;;;11.93;;
7213;SDS011;3648;50.614;13.830;2022-08-14T04:17:35;12.73;;;11.53;;
7213;SDS011;3648;50.614;13.830;2022-08-14T04:20:03;13.47;;;12.20;;
7213;SDS011;3648;50.614;13.830;2022-08-14T04:22:31;12.97;;;11.87;;
7213;SDS011;3648;50.614;13.830;2022-08-14T04:24:59;12.93;;;11.77;;
7213;SDS011;3648;50.614;13.830;2022-08-14T04:27:27;13.60;;;12.40;;
7213;SDS011;3648;50.614;13.830;2022-08-14T04:29:55;12.97;;;11.87;;
7213;SDS011;3648;50.614;13.830;2022-08-14T04:32:22;11.87;;;10.87;;
7213;SDS011;3648;50.614;13.830;2022-08-14T04:34:51;13.77;;;12.53;;
7213;SDS011;3648;50.614;13.830;2022-08-14T04:37:20;13.13;;;11.93;;
7213;SDS011;3648;50.614;13.830;2022-08-14T04:40:06;12.57;;;11.47;;
7213;SDS011;3648;50.614;13.830;2022-08-14T04:43:01;13.77;;;12.43;;
7213;SDS011;3648;50.614;13.830;2022-08-14T04:45:45;13.27;;;12.07;;
7213;SDS011;3648;50.614;13.830;2022-08-14T04:48:13;13.53;;;12.43;;
7213;SDS011;3648;50.614;13.830;2022-08-14T04:50:41;13.67;;;12.50;;
7213;SDS011;3648;50.614;13.830;2022-08-14T04:53:09;14.70;;;13.20;;
7213;SDS011;3648;50.614;13.830;2022-08-14T04:55:38;13.83;;;12.60;;
7213;SDS011;3648;50.614;13.830;2022-08-14T04:58:08;13.73;;;12.53;;
7213;SDS011;3648;50.614;13.830;2022-08-14T05:00:35;13.77;;;12.57;;
7213;SDS011;3648;50.614;13.830;2022-08-14T05:03:04;13.73;;;12.53;;
7213;SDS011;3648;50.614;13.830;2022-08-14T05:05:31;14.00;;;12.73;;
7213;SDS011;3648;50.614;13.830;2022-08-14T05:08:03;13.93;;;12.77;;
7213;SDS011;3648;50.614;13.830;2022-08-14T05:10:33;15.10;;;13.70;;
7213;SDS011;3648;50.614;13.830;2022-08-14T05:13:01;13.23;;;12.03;;
7213;SDS011;3648;50.614;13.830;2022-08-14T05:15:31;14.47;;;13.17;;
7213;SDS011;3648;50.614;13.830;2022-08-14T05:18:00;15.80;;;14.30;;
7213;SDS011;3648;50.614;13.830;2022-08-14T05:20:30;14.43;;;13.13;;
7213;SDS011;3648;50.614;13.830;2022-08-14T05:22:57;16.67;;;15.17;;
7213;SDS011;3648;50.614;13.830;2022-08-14T05:25:24;14.87;;;13.60;;
7213;SDS011;3648;50.614;13.830;2022-08-14T05:27:51;16.20;;;14.60;;
7213;SDS011;3648;50.614;13.830;2022-08-14T05:30:24;14.77;;;13.30;;
7213;SDS011;3648;50.614;13.830;2022-08-14T05:32:53;14.63;;;13.23;;
7213;SDS011;3648;50.614;13.830;2022-08-14T05:35:21;14.77;;;13.53;;
7213;SDS011;3648;50.614;13.830;2022-08-14T05:37:48;14.97;;;13.67;;
7213;SDS011;3648;50.614;13.830;2022-08-14T05:40:15;15.03;;;13.73;;
7213;SDS011;3648;50.614;13.830;2022-08-14T05:42:42;12.57;;;11.37;;
7213;SDS011;3648;50.614;13.830;2022-08-14T05:45:10;14.27;;;13.07;;
7213;SDS011;3648;50.614;13.830;2022-08-14T05:47:39;13.27;;;12.07;;
7213;SDS011;3648;50.614;13.830;2022-08-14T05:50:09;13.23;;;12.03;;
7213;SDS011;3648;50.614;13.830;2022-08-14T05:52:38;13.00;;;11.90;;
7213;SDS011;3648;50.614;13.830;2022-08-14T05:55:06;12.50;;;11.40;;
7213;SDS011;3648;50.614;13.830;2022-08-14T05:57:44;14.23;;;13.03;;
7213;SDS011;3648;50.614;13.830;2022-08-14T06:00:13;13.30;;;12.10;;
7213;SDS011;3648;50.614;13.830;2022-08-14T06:02:43;13.23;;;11.90;;
7213;SDS011;3648;50.614;13.830;2022-08-14T06:05:11;14.40;;;13.10;;
7213;SDS011;3648;50.614;13.830;2022-08-14T06:07:41;12.67;;;11.57;;
7213;SDS011;3648;50.614;13.830;2022-08-14T06:10:09;12.87;;;11.77;;
7213;SDS011;3648;50.614;13.830;2022-08-14T06:12:39;13.10;;;12.00;;
7213;SDS011;3648;50.614;13.830;2022-08-14T06:15:07;12.73;;;11.73;;
7213;SDS011;3648;50.614;13.830;2022-08-14T06:17:42;12.80;;;11.77;;
7213;SDS011;3648;50.614;13.830;2022-08-14T06:20:12;12.80;;;11.70;;
7213;SDS011;3648;50.614;13.830;2022-08-14T06:22:39;13.07;;;11.97;;
7213;SDS011;3648;50.614;13.830;2022-08-14T06:25:08;12.43;;;11.33;;
7213;SDS011;3648;50.614;13.830;2022-08-14T06:27:36;11.93;;;10.93;;
7213;SDS011;3648;50.614;13.830;2022-08-14T06:30:05;13.33;;;12.13;;
7213;SDS011;3648;50.614;13.830;2022-08-14T06:32:33;12.40;;;11.30;;
7213;SDS011;3648;50.614;13.830;2022-08-14T06:35:01;13.10;;;11.80;;
7213;SDS011;3648;50.614;13.830;2022-08-14T06:37:41;13.07;;;11.87;;
7213;SDS011;3648;50.614;13.830;2022-08-14T06:40:41;12.47;;;11.47;;
7213;SDS011;3648;50.614;13.830;2022-08-14T06:43:09;13.13;;;11.93;;
7213;SDS011;3648;50.614;13.830;2022-08-14T06:45:47;12.90;;;11.67;;
7213;SDS011;3648;50.614;13.830;2022-08-14T06:48:20;14.37;;;13.17;;
7213;SDS011;3648;50.614;13.830;2022-08-14T06:50:52;13.57;;;12.47;;
7213;SDS011;3648;50.614;13.830;2022-08-14T06:53:21;12.87;;;11.67;;
7213;SDS011;3648;50.614;13.830;2022-08-14T06:55:49;11.97;;;10.97;;
7213;SDS011;3648;50.614;13.830;2022-08-14T06:58:17;13.27;;;11.70;;
7213;SDS011;3648;50.614;13.830;2022-08-14T07:00:45;12.87;;;11.80;;
7213;SDS011;3648;50.614;13.830;2022-08-14T07:03:26;12.10;;;11.07;;
7213;SDS011;3648;50.614;13.830;2022-08-14T07:06:11;12.30;;;11.20;;
7213;SDS011;3648;50.614;13.830;2022-08-14T07:08:41;12.63;;;11.43;;
7213;SDS011;3648;50.614;13.830;2022-08-14T07:11:11;12.70;;;11.60;;
7213;SDS011;3648;50.614;13.830;2022-08-14T07:13:39;13.80;;;12.40;;
7213;SDS011;3648;50.614;13.830;2022-08-14T07:16:06;13.93;;;12.57;;
7213;SDS011;3648;50.614;13.830;2022-08-14T07:18:37;14.30;;;13.00;;
7213;SDS011;3648;50.614;13.830;2022-08-14T07:21:06;12.47;;;11.27;;
7213;SDS011;3648;50.614;13.830;2022-08-14T07:23:35;11.43;;;10.37;;
7213;SDS011;3648;50.614;13.830;2022-08-14T07:26:04;10.77;;;9.77;;
7213;SDS011;3648;50.614;13.830;2022-08-14T07:28:35;11.27;;;10.27;;
7213;SDS011;3648;50.614;13.830;2022-08-14T07:31:04;9.57;;;8.73;;
7213;SDS011;3648;50.614;13.830;2022-08-14T07:33:33;9.70;;;8.80;;
7213;SDS011;3648;50.614;13.830;2022-08-14T07:36:03;9.37;;;8.47;;
7213;SDS011;3648;50.614;13.830;2022-08-14T07:38:32;9.80;;;8.90;;
7213;SDS011;3648;50.614;13.830;2022-08-14T07:41:00;9.73;;;8.93;;
7213;SDS011;3648;50.614;13.830;2022-08-14T07:43:31;9.00;;;8.23;;
7213;SDS011;3648;50.614;13.830;2022-08-14T07:45:58;8.83;;;8.03;;
7213;SDS011;3648;50.614;13.830;2022-08-14T07:48:29;8.80;;;8.00;;
7213;SDS011;3648;50.614;13.830;2022-08-14T07:50:58;9.63;;;8.73;;
7213;SDS011;3648;50.614;13.830;2022-08-14T07:53:25;9.90;;;9.00;;
7213;SDS011;3648;50.614;13.830;2022-08-14T07:55:54;9.30;;;8.50;;
7213;SDS011;3648;50.614;13.830;2022-08-14T07:58:21;9.30;;;8.50;;
7213;SDS011;3648;50.614;13.830;2022-08-14T08:00:52;9.37;;;8.47;;
7213;SDS011;3648;50.614;13.830;2022-08-14T08:03:20;9.00;;;8.10;;
7213;SDS011;3648;50.614;13.830;2022-08-14T08:05:51;8.93;;;8.23;;
7213;SDS011;3648;50.614;13.830;2022-08-14T08:08:18;8.70;;;8.00;;
7213;SDS011;3648;50.614;13.830;2022-08-14T08:10:47;8.83;;;8.07;;
7213;SDS011;3648;50.614;13.830;2022-08-14T08:13:15;8.20;;;7.50;;
7213;SDS011;3648;50.614;13.830;2022-08-14T08:15:44;8.17;;;7.37;;
7213;SDS011;3648;50.614;13.830;2022-08-14T08:18:14;8.20;;;7.47;;
7213;SDS011;3648;50.614;13.830;2022-08-14T08:20:44;7.90;;;7.20;;
7213;SDS011;3648;50.614;13.830;2022-08-14T08:23:12;7.87;;;7.07;;
7213;SDS011;3648;50.614;13.830;2022-08-14T08:25:41;7.23;;;6.53;;
7213;SDS011;3648;50.614;13.830;2022-08-14T08:28:10;7.23;;;6.67;;
7213;SDS011;3648;50.614;13.830;2022-08-14T08:30:40;7.40;;;6.80;;
7213;SDS011;3648;50.614;13.830;2022-08-14T08:33:08;7.97;;;7.27;;
7213;SDS011;3648;50.614;13.830;2022-08-14T08:35:37;7.83;;;7.13;;
7213;SDS011;3648;50.614;13.830;2022-08-14T08:38:05;6.83;;;6.20;;
7213;SDS011;3648;50.614;13.830;2022-08-14T08:40:35;6.90;;;6.40;;
7213;SDS011;3648;50.614;13.830;2022-08-14T08:43:05;7.07;;;6.47;;
7213;SDS011;3648;50.614;13.830;2022-08-14T08:45:34;7.00;;;6.40;;
7213;SDS011;3648;50.614;13.830;2022-08-14T08:48:02;7.40;;;6.70;;
7213;SDS011;3648;50.614;13.830;2022-08-14T08:50:30;7.27;;;6.57;;
7213;SDS011;3648;50.614;13.830;2022-08-14T08:53:01;7.17;;;6.57;;
7213;SDS011;3648;50.614;13.830;2022-08-14T08:55:31;6.67;;;6.03;;
7213;SDS011;3648;50.614;13.830;2022-08-14T08:58:00;6.70;;;5.83;;
7213;SDS011;3648;50.614;13.830;2022-08-14T09:00:29;6.87;;;6.33;;
7213;SDS011;3648;50.614;13.830;2022-08-14T09:03:00;7.23;;;6.63;;
7213;SDS011;3648;50.614;13.830;2022-08-14T09:05:31;6.43;;;5.83;;
7213;SDS011;3648;50.614;13.830;2022-08-14T09:08:14;6.73;;;6.13;;
7213;SDS011;3648;50.614;13.830;2022-08-14T09:10:43;5.93;;;5.43;;
7213;SDS011;3648;50.614;13.830;2022-08-14T09:13:11;5.30;;;4.90;;
7213;SDS011;3648;50.614;13.830;2022-08-14T09:15:40;5.77;;;5.27;;
7213;SDS011;3648;50.614;13.830;2022-08-14T09:18:15;5.73;;;5.23;;
7213;SDS011;3648;50.614;13.830;2022-08-14T09:20:45;5.70;;;5.20;;
7213;SDS011;3648;50.614;13.830;2022-08-14T09:23:16;5.63;;;5.13;;
7213;SDS011;3648;50.614;13.830;2022-08-14T09:25:44;5.53;;;5.03;;
7213;SDS011;3648;50.614;13.830;2022-08-14T09:28:13;5.70;;;5.20;;
7213;SDS011;3648;50.614;13.830;2022-08-14T09:30:41;5.03;;;4.63;;
7213;SDS011;3648;50.614;13.830;2022-08-14T09:33:15;5.27;;;4.87;;
7213;SDS011;3648;50.614;13.830;2022-08-14T09:36:11;5.67;;;5.13;;
7213;SDS011;3648;50.614;13.830;2022-08-14T09:39:03;5.63;;;4.53;;
7213;SDS011;3648;50.614;13.830;2022-08-14T09:41:43;4.70;;;4.30;;
7213;SDS011;3648;50.614;13.830;2022-08-14T09:44:25;4.20;;;3.80;;
7213;SDS011;3648;50.614;13.830;2022-08-14T09:46:58;4.53;;;4.13;;
7213;SDS011;3648;50.614;13.830;2022-08-14T09:49:29;6.63;;;4.63;;
7213;SDS011;3648;50.614;13.830;2022-08-14T09:52:02;4.67;;;4.27;;
7213;SDS011;3648;50.614;13.830;2022-08-14T09:54:41;4.53;;;4.23;;
7213;SDS011;3648;50.614;13.830;2022-08-14T09:57:09;4.70;;;4.30;;
7213;SDS011;3648;50.614;13.830;2022-08-14T09:59:42;5.57;;;4.30;;
7213;SDS011;3648;50.614;13.830;2022-08-14T10:02:18;5.00;;;4.50;;
7213;SDS011;3648;50.614;13.830;2022-08-14T10:04:57;4.50;;;4.20;;
7213;SDS011;3648;50.614;13.830;2022-08-14T10:07:28;5.00;;;4.60;;
7213;SDS011;3648;50.614;13.830;2022-08-14T10:09:58;4.83;;;4.43;;
7213;SDS011;3648;50.614;13.830;2022-08-14T10:12:39;5.00;;;4.60;;
7213;SDS011;3648;50.614;13.830;2022-08-14T10:15:17;4.87;;;4.43;;
7213;SDS011;3648;50.614;13.830;2022-08-14T10:17:45;4.83;;;4.43;;
7213;SDS011;3648;50.614;13.830;2022-08-14T10:20:14;4.93;;;4.53;;
7213;SDS011;3648;50.614;13.830;2022-08-14T10:22:46;4.83;;;4.40;;
7213;SDS011;3648;50.614;13.830;2022-08-14T10:25:15;5.00;;;4.60;;
7213;SDS011;3648;50.614;13.830;2022-08-14T10:27:44;5.37;;;4.87;;
7213;SDS011;3648;50.614;13.830;2022-08-14T10:30:14;5.33;;;4.83;;
7213;SDS011;3648;50.614;13.830;2022-08-14T10:32:44;5.83;;;4.70;;
7213;SDS011;3648;50.614;13.830;2022-08-14T10:35:12;6.27;;;4.97;;
7213;SDS011;3648;50.614;13.830;2022-08-14T10:37:41;4.90;;;4.50;;
7213;SDS011;3648;50.614;13.830;2022-08-14T10:40:13;4.80;;;4.37;;
7213;SDS011;3648;50.614;13.830;2022-08-14T10:42:52;5.50;;;5.00;;
7213;SDS011;3648;50.614;13.830;2022-08-14T10:45:20;5.60;;;5.10;;
7213;SDS011;3648;50.614;13.830;2022-08-14T10:47:49;5.07;;;4.57;;
7213;SDS011;3648;50.614;13.830;2022-08-14T10:50:27;4.80;;;4.40;;
7213;SDS011;3648;50.614;13.830;2022-08-14T10:52:56;4.83;;;4.43;;
7213;SDS011;3648;50.614;13.830;2022-08-14T10:55:31;4.37;;;4.00;;
7213;SDS011;3648;50.614;13.830;2022-08-14T10:58:04;4.60;;;4.30;;
7213;SDS011;3648;50.614;13.830;2022-08-14T11:00:36;4.67;;;4.27;;
7213;SDS011;3648;50.614;13.830;2022-08-14T11:03:05;4.50;;;4.20;;
7213;SDS011;3648;50.614;13.830;2022-08-14T11:05:37;4.10;;;3.80;;
7213;SDS011;3648;50.614;13.830;2022-08-14T11:08:06;4.87;;;4.47;;
7213;SDS011;3648;50.614;13.830;2022-08-14T11:10:39;4.77;;;4.27;;
7213;SDS011;3648;50.614;13.830;2022-08-14T11:13:09;5.07;;;4.67;;
7213;SDS011;3648;50.614;13.830;2022-08-14T11:15:42;5.47;;;4.83;;
7213;SDS011;3648;50.614;13.830;2022-08-14T11:18:13;7.90;;;5.40;;
7213;SDS011;3648;50.614;13.830;2022-08-14T11:20:45;5.93;;;5.43;;
7213;SDS011;3648;50.614;13.830;2022-08-14T11:23:15;5.20;;;4.80;;
7213;SDS011;3648;50.614;13.830;2022-08-14T11:25:48;4.47;;;4.17;;
7213;SDS011;3648;50.614;13.830;2022-08-14T11:28:15;5.47;;;4.33;;
7213;SDS011;3648;50.614;13.830;2022-08-14T11:30:49;4.37;;;4.07;;
7213;SDS011;3648;50.614;13.830;2022-08-14T11:33:20;4.03;;;3.73;;
7213;SDS011;3648;50.614;13.830;2022-08-14T11:35:49;3.90;;;3.60;;
7213;SDS011;3648;50.614;13.830;2022-08-14T11:38:17;4.83;;;3.70;;
7213;SDS011;3648;50.614;13.830;2022-08-14T11:40:45;3.77;;;3.47;;
7213;SDS011;3648;50.614;13.830;2022-08-14T11:43:14;7.30;;;4.50;;
7213;SDS011;3648;50.614;13.830;2022-08-14T11:45:44;4.73;;;4.03;;
7213;SDS011;3648;50.614;13.830;2022-08-14T11:48:14;3.97;;;3.67;;
7213;SDS011;3648;50.614;13.830;2022-08-14T11:50:42;5.23;;;4.13;;
7213;SDS011;3648;50.614;13.830;2022-08-14T11:53:17;4.17;;;3.77;;
7213;SDS011;3648;50.614;13.830;2022-08-14T11:55:53;4.23;;;3.90;;
7213;SDS011;3648;50.614;13.830;2022-08-14T11:58:25;4.83;;;4.03;;
7213;SDS011;3648;50.614;13.830;2022-08-14T12:00:56;3.93;;;3.63;;
7213;SDS011;3648;50.614;13.830;2022-08-14T12:03:34;4.20;;;3.90;;
7213;SDS011;3648;50.614;13.830;2022-08-14T12:06:03;4.43;;;4.10;;
7213;SDS011;3648;50.614;13.830;2022-08-14T12:08:32;4.43;;;3.93;;
7213;SDS011;3648;50.614;13.830;2022-08-14T12:11:01;4.37;;;3.97;;
7213;SDS011;3648;50.614;13.830;2022-08-14T12:13:29;4.83;;;4.43;;
7213;SDS011;3648;50.614;13.830;2022-08-14T12:15:58;4.70;;;4.30;;
7213;SDS011;3648;50.614;13.830;2022-08-14T12:18:30;4.40;;;4.00;;
7213;SDS011;3648;50.614;13.830;2022-08-14T12:21:09;4.60;;;4.20;;
7213;SDS011;3648;50.614;13.830;2022-08-14T12:23:37;4.07;;;3.77;;
7213;SDS011;3648;50.614;13.830;2022-08-14T12:26:06;4.40;;;4.07;;
7213;SDS011;3648;50.614;13.830;2022-08-14T12:28:35;5.67;;;5.17;;
7213;SDS011;3648;50.614;13.830;2022-08-14T12:31:13;5.50;;;4.57;;
7213;SDS011;3648;50.614;13.830;2022-08-14T12:33:53;6.03;;;4.60;;
7213;SDS011;3648;50.614;13.830;2022-08-14T12:36:24;5.20;;;4.70;;
7213;SDS011;3648;50.614;13.830;2022-08-14T12:38:55;5.70;;;5.17;;
7213;SDS011;3648;50.614;13.830;2022-08-14T12:41:24;4.70;;;4.30;;
7213;SDS011;3648;50.614;13.830;2022-08-14T12:43:55;6.13;;;4.70;;
7213;SDS011;3648;50.614;13.830;2022-08-14T12:46:26;5.00;;;4.60;;
7213;SDS011;3648;50.614;13.830;2022-08-14T12:48:55;5.23;;;4.80;;
7213;SDS011;3648;50.614;13.830;2022-08-14T12:51:24;4.40;;;4.10;;
7213;SDS011;3648;50.614;13.830;2022-08-14T12:53:53;4.57;;;4.10;;
7213;SDS011;3648;50.614;13.830;2022-08-14T12:56:21;4.60;;;4.20;;
7213;SDS011;3648;50.614;13.830;2022-08-14T12:58:51;4.53;;;4.13;;
7213;SDS011;3648;50.614;13.830;2022-08-14T13:01:20;5.07;;;4.67;;
7213;SDS011;3648;50.614;13.830;2022-08-14T13:03:48;4.73;;;4.33;;
7213;SDS011;3648;50.614;13.830;2022-08-14T13:06:17;6.03;;;5.30;;
7213;SDS011;3648;50.614;13.830;2022-08-14T13:08:49;5.07;;;4.67;;
7213;SDS011;3648;50.614;13.830;2022-08-14T13:11:17;5.30;;;4.80;;
7213;SDS011;3648;50.614;13.830;2022-08-14T13:13:46;4.90;;;4.50;;
7213;SDS011;3648;50.614;13.830;2022-08-14T13:16:14;5.40;;;4.90;;
7213;SDS011;3648;50.614;13.830;2022-08-14T13:18:43;6.83;;;5.27;;
7213;SDS011;3648;50.614;13.830;2022-08-14T13:21:11;6.17;;;5.57;;
7213;SDS011;3648;50.614;13.830;2022-08-14T13:23:39;6.40;;;5.83;;
7213;SDS011;3648;50.614;13.830;2022-08-14T13:26:08;6.00;;;5.40;;
7213;SDS011;3648;50.614;13.830;2022-08-14T13:28:39;5.60;;;5.17;;
7213;SDS011;3648;50.614;13.830;2022-08-14T13:31:11;6.47;;;5.13;;
7213;SDS011;3648;50.614;13.830;2022-08-14T13:33:40;5.17;;;4.80;;
7213;SDS011;3648;50.614;13.830;2022-08-14T13:36:07;6.17;;;5.57;;
7213;SDS011;3648;50.614;13.830;2022-08-14T13:38:36;5.53;;;5.00;;
7213;SDS011;3648;50.614;13.830;2022-08-14T13:41:06;5.60;;;5.10;;
7213;SDS011;3648;50.614;13.830;2022-08-14T13:43:35;5.53;;;5.03;;
7213;SDS011;3648;50.614;13.830;2022-08-14T13:46:03;6.93;;;5.20;;
7213;SDS011;3648;50.614;13.830;2022-08-14T13:48:32;5.60;;;5.10;;
7213;SDS011;3648;50.614;13.830;2022-08-14T13:51:01;6.07;;;5.57;;
7213;SDS011;3648;50.614;13.830;2022-08-14T13:53:31;6.00;;;5.30;;
7213;SDS011;3648;50.614;13.830;2022-08-14T13:56:08;5.67;;;5.23;;
7213;SDS011;3648;50.614;13.830;2022-08-14T13:58:36;8.10;;;5.80;;
7213;SDS011;3648;50.614;13.830;2022-08-14T14:01:04;5.47;;;4.97;;
7213;SDS011;3648;50.614;13.830;2022-08-14T14:03:34;5.33;;;4.83;;
7213;SDS011;3648;50.614;13.830;2022-08-14T14:06:02;5.83;;;5.33;;
7213;SDS011;3648;50.614;13.830;2022-08-14T14:08:30;5.50;;;5.00;;
7213;SDS011;3648;50.614;13.830;2022-08-14T14:11:01;6.40;;;5.40;;
7213;SDS011;3648;50.614;13.830;2022-08-14T14:13:29;5.60;;;5.20;;
7213;SDS011;3648;50.614;13.830;2022-08-14T14:15:56;5.27;;;4.80;;
7213;SDS011;3648;50.614;13.830;2022-08-14T14:18:26;5.27;;;4.67;;
7213;SDS011;3648;50.614;13.830;2022-08-14T14:20:56;5.47;;;4.97;;
7213;SDS011;3648;50.614;13.830;2022-08-14T14:23:23;4.90;;;4.50;;
7213;SDS011;3648;50.614;13.830;2022-08-14T14:25:51;7.40;;;5.33;;
7213;SDS011;3648;50.614;13.830;2022-08-14T14:28:19;5.63;;;4.73;;
7213;SDS011;3648;50.614;13.830;2022-08-14T14:30:47;5.80;;;5.33;;
7213;SDS011;3648;50.614;13.830;2022-08-14T14:33:15;6.03;;;5.47;;
7213;SDS011;3648;50.614;13.830;2022-08-14T14:35:44;4.97;;;4.57;;
7213;SDS011;3648;50.614;13.830;2022-08-14T14:38:13;5.40;;;4.97;;
7213;SDS011;3648;50.614;13.830;2022-08-14T14:40:42;5.40;;;4.93;;
7213;SDS011;3648;50.614;13.830;2022-08-14T14:43:11;6.03;;;4.70;;
7213;SDS011;3648;50.614;13.830;2022-08-14T14:45:41;5.10;;;4.60;;
7213;SDS011;3648;50.614;13.830;2022-08-14T14:48:11;4.47;;;4.07;;
7213;SDS011;3648;50.614;13.830;2022-08-14T14:50:38;5.40;;;4.50;;
7213;SDS011;3648;50.614;13.830;2022-08-14T14:53:05;4.77;;;4.37;;
7213;SDS011;3648;50.614;13.830;2022-08-14T14:55:37;5.60;;;5.00;;
7213;SDS011;3648;50.614;13.830;2022-08-14T14:58:05;4.90;;;4.50;;
7213;SDS011;3648;50.614;13.830;2022-08-14T15:00:35;6.00;;;4.93;;
7213;SDS011;3648;50.614;13.830;2022-08-14T15:03:03;5.53;;;4.57;;
7213;SDS011;3648;50.614;13.830;2022-08-14T15:05:31;4.70;;;4.20;;
7213;SDS011;3648;50.614;13.830;2022-08-14T15:07:58;5.60;;;5.10;;